Parent, Canada
Current Conditions -  °F | °C
As of 6:00 AM on Friday 31 Oct 2014 (Local Time) from CYRJ Reporting Station
Broken Clouds Broken Clouds  
Wind Chill: 25°   Ceiling: 3500
Heat Index: 30°   Visibility: 25mi
Dew Point: 27°   Wind: 5mph
Humidity: 86%   Direction: 260°W
Pressure: 30.04"   Gusts: NA
Location:  47.92°N, 74.62°W
Report Text: CYRJ 311000Z 26004KT 25SM BKN035 M01/M03 A3004 RMK SC7 SLP180
Loading
Personal Weather Stations






























Interactive Weather Map
Tropical Storm Tracking
New forecast layout! Learn more

10-Day Weather Forecast

Advertisements
Track Severe Weather on mobile